createdAt,value
2023-03-10T00:01:35.798Z,98985.00
2023-03-10T00:04:05.351Z,98988.50
2023-03-10T00:06:37.599Z,98982.25
2023-03-10T00:09:08.387Z,98983.75
2023-03-10T00:11:37.181Z,98984.53
2023-03-10T00:14:06.275Z,98986.03
2023-03-10T00:16:35.176Z,98978.94
2023-03-10T00:19:04.572Z,98961.56
2023-03-10T00:21:34.622Z,98965.25
2023-03-10T00:24:03.739Z,98963.66
2023-03-10T00:26:34.047Z,98954.06
2023-03-10T00:29:03.152Z,98941.56
2023-03-10T00:31:32.600Z,98943.91
2023-03-10T00:34:02.721Z,98944.41
2023-03-10T00:36:33.556Z,98945.19
2023-03-10T00:39:04.255Z,98950.34
2023-03-10T00:41:39.014Z,98937.63
2023-03-10T00:44:10.272Z,98932.53
2023-03-10T00:52:14.136Z,98918.16
2023-03-10T00:54:43.463Z,98916.63
2023-03-10T00:57:13.649Z,98909.25
2023-03-10T00:59:50.389Z,98914.97
2023-03-10T01:02:20.101Z,98918.47
2023-03-10T01:04:49.837Z,98915.66
2023-03-10T01:07:19.342Z,98915.66
2023-03-10T01:09:48.384Z,98918.00
2023-03-10T01:12:18.556Z,98909.88
2023-03-10T01:14:47.704Z,98908.78
2023-03-10T01:17:17.400Z,98898.56
2023-03-10T01:19:46.480Z,98896.78
2023-03-10T01:22:15.264Z,98891.75
2023-03-10T01:24:44.668Z,98890.22
2023-03-10T01:27:13.480Z,98889.38
2023-03-10T01:29:43.896Z,98878.34
2023-03-10T01:32:12.682Z,98874.94
2023-03-10T01:34:41.802Z,98866.91
2023-03-10T01:37:10.584Z,98875.53
2023-03-10T01:39:39.662Z,98871.94
2023-03-10T01:42:09.813Z,98870.09
2023-03-10T01:44:39.386Z,98864.94
2023-03-10T01:47:09.647Z,98859.00
2023-03-10T01:49:43.964Z,98860.69
2023-03-10T01:52:17.654Z,98846.91
2023-03-10T01:54:51.622Z,98853.91
2023-03-10T01:57:28.424Z,98847.22
2023-03-10T01:59:59.788Z,98843.81
2023-03-10T02:02:38.875Z,98842.97
2023-03-10T02:05:09.443Z,98828.59
2023-03-10T02:07:41.297Z,98826.84
2023-03-10T02:10:14.717Z,98817.41
2023-03-10T02:12:44.501Z,98813.38
2023-03-10T02:15:14.341Z,98808.03
2023-03-10T02:17:44.791Z,98805.97
2023-03-10T02:20:34.365Z,98799.91
2023-03-10T02:23:03.600Z,98786.19
2023-03-10T02:25:47.859Z,98777.75
2023-03-10T02:28:19.694Z,98771.00
2023-03-10T02:30:52.760Z,98766.63
2023-03-10T02:33:26.855Z,98765.00
2023-03-10T02:36:05.375Z,98768.31
2023-03-10T02:38:34.241Z,98762.72
2023-03-10T02:41:05.091Z,98755.38
2023-03-10T02:43:36.434Z,98750.88
2023-03-10T02:46:18.258Z,98757.97
2023-03-10T02:48:48.487Z,98753.56
2023-03-10T02:51:35.363Z,98740.47
2023-03-10T02:54:11.058Z,98731.69
2023-03-10T02:56:42.536Z,98724.56
2023-03-10T02:59:16.325Z,98730.44
2023-03-10T03:01:50.247Z,98723.44
2023-03-10T03:04:21.169Z,98722.69
2023-03-10T03:06:50.527Z,98714.06
2023-03-10T03:09:19.547Z,98708.56
2023-03-10T03:11:49.438Z,98707.63
2023-03-10T03:14:20.636Z,98708.41
2023-03-10T03:16:51.529Z,98707.41
2023-03-10T03:19:20.733Z,98701.38
2023-03-10T03:21:50.127Z,98695.28
2023-03-10T03:24:21.181Z,98688.88
2023-03-10T03:26:50.801Z,98675.41
2023-03-10T03:29:24.817Z,98672.25
2023-03-10T03:31:54.948Z,98666.91
2023-03-10T03:35:17.752Z,98659.16
2023-03-10T03:37:47.160Z,98658.28
2023-03-10T03:40:17.348Z,98642.84
2023-03-10T03:42:52.546Z,98641.84
2023-03-10T03:45:27.237Z,98635.16
2023-03-10T03:47:58.143Z,98630.91
2023-03-10T03:50:29.300Z,98624.06
2023-03-10T03:53:05.896Z,98620.66
2023-03-10T03:55:35.674Z,98616.22
2023-03-10T03:58:05.106Z,98611.53
2023-03-10T04:00:35.976Z,98592.84
2023-03-10T04:03:09.540Z,98593.59
2023-03-10T04:05:39.758Z,98603.69
2023-03-10T04:08:09.749Z,98605.69
2023-03-10T04:10:38.657Z,98595.84
2023-03-10T04:13:07.865Z,98588.81
2023-03-10T04:15:38.677Z,98585.88
2023-03-10T04:18:08.349Z,98580.63
2023-03-10T04:20:37.320Z,98569.56
2023-03-10T04:23:06.565Z,98573.69
2023-03-10T04:25:37.800Z,98578.94
2023-03-10T04:28:07.391Z,98569.97
2023-03-10T04:30:36.257Z,98572.72
2023-03-10T04:33:07.678Z,98582.28
2023-03-10T04:35:42.555Z,98571.91
2023-03-10T04:38:12.615Z,98565.44
2023-03-10T04:40:41.770Z,98556.13
2023-03-10T04:43:11.944Z,98556.03
2023-03-10T04:45:40.996Z,98551.13
2023-03-10T04:48:12.889Z,98552.03
2023-03-10T04:50:42.181Z,98543.00
2023-03-10T04:53:12.099Z,98533.00
2023-03-10T04:55:40.937Z,98527.72
2023-03-10T04:58:10.638Z,98533.56
2023-03-10T05:00:53.099Z,98527.22
2023-03-10T05:03:31.402Z,98525.53
2023-03-10T05:06:00.276Z,98505.00
2023-03-10T05:08:30.174Z,98501.00
2023-03-10T05:10:59.201Z,98494.28
2023-03-10T05:13:31.369Z,98468.00
2023-03-10T05:16:01.081Z,98455.59
2023-03-10T05:18:31.754Z,98451.44
2023-03-10T05:21:00.605Z,98468.25
2023-03-10T05:23:30.997Z,98474.94
2023-03-10T05:25:59.787Z,98486.03
2023-03-10T05:28:29.039Z,98481.50
2023-03-10T05:30:58.112Z,98478.09
2023-03-10T05:33:29.572Z,98477.13
2023-03-10T05:36:05.808Z,98468.19
2023-03-10T05:38:36.146Z,98462.03
2023-03-10T05:41:09.311Z,98445.50
2023-03-10T05:43:40.518Z,98441.03
2023-03-10T05:46:12.581Z,98445.59
2023-03-10T05:48:47.601Z,98454.19
2023-03-10T05:51:18.196Z,98443.09
2023-03-10T05:53:48.975Z,98447.91
2023-03-10T05:56:22.897Z,98456.31
2023-03-10T05:58:55.995Z,98450.19
2023-03-10T06:01:30.811Z,98441.69
2023-03-10T06:04:00.145Z,98436.22
2023-03-10T06:06:30.427Z,98435.00
2023-03-10T06:08:59.830Z,98428.97
2023-03-10T06:11:29.157Z,98439.88
2023-03-10T06:13:58.499Z,98426.34
2023-03-10T06:16:27.440Z,98427.56
2023-03-10T06:18:58.306Z,98427.28
2023-03-10T06:21:28.503Z,98428.72
2023-03-10T06:23:59.264Z,98432.06
2023-03-10T06:26:28.157Z,98431.69
2023-03-10T06:28:57.274Z,98429.00
2023-03-10T06:31:26.826Z,98423.16
2023-03-10T06:33:55.928Z,98417.44
2023-03-10T06:36:26.707Z,98408.38
2023-03-10T06:38:56.622Z,98404.13
2023-03-10T06:41:28.014Z,98407.84
2023-03-10T06:43:57.087Z,98414.84
2023-03-10T06:46:26.518Z,98406.03
2023-03-10T06:48:56.301Z,98408.25
2023-03-10T06:51:25.476Z,98389.75
2023-03-10T06:53:55.217Z,98388.13
2023-03-10T06:56:24.292Z,98381.88
2023-03-10T06:58:54.784Z,98381.59
2023-03-10T07:01:28.167Z,98380.44
2023-03-10T07:03:58.739Z,98373.84
2023-03-10T07:06:27.748Z,98365.56
2023-03-10T07:08:57.786Z,98373.53
2023-03-10T07:11:27.824Z,98365.34
2023-03-10T07:13:58.281Z,98366.59
2023-03-10T07:16:27.148Z,98364.78
2023-03-10T07:18:56.256Z,98357.25
2023-03-10T07:21:25.180Z,98356.94
2023-03-10T07:23:54.232Z,98349.06
2023-03-10T07:26:24.105Z,98359.75
2023-03-10T07:28:54.338Z,98364.09
2023-03-10T07:31:24.819Z,98370.97
2023-03-10T07:33:53.922Z,98362.25
2023-03-10T07:36:23.592Z,98361.44
2023-03-10T07:38:52.804Z,98353.22
2023-03-10T07:41:22.281Z,98346.91
2023-03-10T07:43:55.771Z,98333.28
2023-03-10T07:46:26.058Z,98337.63
2023-03-10T07:48:56.378Z,98324.47
2023-03-10T07:51:25.542Z,98331.28
2023-03-10T07:53:54.602Z,98327.34
2023-03-10T07:56:23.560Z,98314.97
2023-03-10T07:58:52.644Z,98309.66
2023-03-10T08:01:23.420Z,98311.94
2023-03-10T08:03:56.769Z,98305.06
2023-03-10T08:06:30.825Z,98298.69
2023-03-10T08:09:00.025Z,98291.97
2023-03-10T08:11:29.039Z,98301.19
2023-03-10T08:13:58.375Z,98302.78
2023-03-10T08:16:27.341Z,98302.47
2023-03-10T08:18:57.810Z,98304.06
2023-03-10T08:21:26.620Z,98295.66
2023-03-10T08:23:56.147Z,98299.28
2023-03-10T08:26:24.979Z,98297.53
2023-03-10T08:28:54.174Z,98303.66
2023-03-10T08:31:23.454Z,98290.66
2023-03-10T08:33:58.118Z,98282.38
2023-03-10T08:36:30.461Z,98275.38
2023-03-10T08:39:02.228Z,98272.47
2023-03-10T08:41:36.312Z,98281.59
2023-03-10T08:44:07.392Z,98287.06
2023-03-10T08:46:36.339Z,98280.59
2023-03-10T08:49:06.825Z,98285.97
2023-03-10T08:51:36.741Z,98279.94
2023-03-10T08:54:06.586Z,98281.06
2023-03-10T08:56:36.069Z,98274.25
2023-03-10T08:59:05.318Z,98272.00
2023-03-10T09:01:38.287Z,98259.78
2023-03-10T09:04:10.864Z,98263.56
2023-03-10T09:06:40.359Z,98258.03
2023-03-10T09:09:11.285Z,98252.94
2023-03-10T09:11:41.709Z,98253.81
2023-03-10T09:14:16.999Z,98247.16
2023-03-10T09:16:46.463Z,98233.22
2023-03-10T09:19:17.041Z,98243.63
2023-03-10T09:21:45.945Z,98247.56
2023-03-10T09:24:15.045Z,98239.31
2023-03-10T09:26:44.824Z,98224.41
2023-03-10T09:29:14.315Z,98226.31
2023-03-10T09:31:44.884Z,98205.97
2023-03-10T09:34:14.254Z,98205.59
2023-03-10T09:36:44.512Z,98206.94
2023-03-10T09:39:13.640Z,98209.84
2023-03-10T09:42:36.444Z,98220.88
2023-03-10T09:45:26.409Z,98215.53
2023-03-10T09:48:17.612Z,98224.78
2023-03-10T09:50:49.287Z,98222.88
2023-03-10T09:53:42.836Z,98208.81
2023-03-10T09:56:15.490Z,98217.09
2023-03-10T09:58:48.043Z,98211.03
2023-03-10T10:01:21.357Z,98206.28
2023-03-10T10:03:54.495Z,98215.03
2023-03-10T10:06:28.781Z,98190.66
2023-03-10T10:09:05.493Z,98184.81
2023-03-10T10:11:36.646Z,98179.47
2023-03-10T10:14:38.372Z,98183.81
2023-03-10T10:17:22.779Z,98181.41
2023-03-10T10:19:53.970Z,98170.25
2023-03-10T10:22:28.828Z,98162.19
2023-03-10T10:25:17.632Z,98165.44
2023-03-10T10:27:47.855Z,98160.31
2023-03-10T10:30:33.917Z,98147.91
2023-03-10T10:33:04.738Z,98154.06
2023-03-10T10:35:37.298Z,98139.53
2023-03-10T10:38:17.961Z,98148.66
2023-03-10T10:40:58.103Z,98148.69
2023-03-10T10:43:27.420Z,98154.22
2023-03-10T10:46:05.074Z,98146.38
2023-03-10T10:48:41.139Z,98142.56
2023-03-10T10:51:24.593Z,98151.81
2023-03-10T10:53:54.864Z,98150.44
2023-03-10T10:56:25.337Z,98133.00
2023-03-10T10:59:07.624Z,98125.88
2023-03-10T11:01:53.406Z,98122.44
2023-03-10T11:04:24.771Z,98123.56
2023-03-10T11:07:09.536Z,98124.00
2023-03-10T11:09:38.621Z,98118.47
2023-03-10T11:12:20.704Z,98113.25
2023-03-10T11:15:14.297Z,98104.97
2023-03-10T11:17:51.200Z,98095.19
2023-03-10T11:20:30.898Z,98100.25
2023-03-10T11:23:14.312Z,98093.16
2023-03-10T11:25:53.197Z,98089.66
2023-03-10T11:28:46.497Z,98082.53
2023-03-10T11:31:33.617Z,98086.25
2023-03-10T11:34:19.713Z,98076.91
2023-03-10T11:37:04.881Z,98082.97
2023-03-10T11:39:54.571Z,98075.78
2023-03-10T11:42:36.845Z,98069.50
2023-03-10T11:45:25.864Z,98072.78
2023-03-10T11:48:17.397Z,98056.06
2023-03-10T11:50:54.952Z,98057.81
2023-03-10T11:53:38.084Z,98052.25
2023-03-10T11:56:12.556Z,98044.16
2023-03-10T11:58:49.745Z,98054.00
2023-03-10T12:01:30.691Z,98048.31
2023-03-10T12:04:12.342Z,98050.31
2023-03-10T12:06:51.615Z,98049.06
2023-03-10T12:09:34.444Z,98064.09
2023-03-10T12:12:06.380Z,98058.31
2023-03-10T12:14:37.018Z,98058.78
2023-03-10T12:17:08.253Z,98044.50
2023-03-10T12:20:12.117Z,98045.22
2023-03-10T12:22:42.889Z,98042.22
2023-03-10T12:25:50.234Z,98048.25
2023-03-10T12:28:29.602Z,98040.41
2023-03-10T12:31:00.856Z,98046.69
2023-03-10T12:33:50.747Z,98049.97
2023-03-10T12:36:42.948Z,98047.00
2023-03-10T12:39:38.963Z,98037.88
2023-03-10T12:42:31.381Z,98037.72
2023-03-10T12:45:18.391Z,98032.09
2023-03-10T12:47:58.233Z,98033.41
2023-03-10T12:50:44.333Z,98038.16
2023-03-10T12:53:32.895Z,98026.13
2023-03-10T12:56:29.897Z,98022.47
2023-03-10T12:59:09.992Z,98026.03
2023-03-10T13:01:55.408Z,98025.75
2023-03-10T13:04:28.773Z,98028.13
2023-03-10T13:07:03.877Z,98028.38
2023-03-10T13:09:39.067Z,98024.31
2023-03-10T13:12:17.709Z,98022.03
2023-03-10T13:14:46.875Z,98024.84
2023-03-10T13:17:25.269Z,98025.91
2023-03-10T13:20:12.520Z,98024.44
2023-03-10T13:22:53.605Z,98029.19
2023-03-10T13:25:23.186Z,98037.31
2023-03-10T13:27:52.658Z,98032.50
2023-03-10T13:30:26.564Z,98037.97
2023-03-10T13:32:59.378Z,98037.03
2023-03-10T13:35:33.735Z,98041.97
2023-03-10T13:38:12.927Z,98032.22
2023-03-10T13:40:45.424Z,98038.84
2023-03-10T13:43:38.212Z,98044.31
2023-03-10T13:46:15.648Z,98040.88
2023-03-10T13:48:47.056Z,98045.50
2023-03-10T13:51:23.827Z,98041.50
2023-03-10T13:54:00.289Z,98041.50
2023-03-10T13:56:37.509Z,98046.31
2023-03-10T13:59:07.456Z,98046.44
2023-03-10T14:01:47.418Z,98044.72
2023-03-10T14:04:20.482Z,98036.13
2023-03-10T14:07:09.706Z,98037.38
2023-03-10T14:09:40.024Z,98043.13
2023-03-10T14:12:11.562Z,98032.88
2023-03-10T14:14:41.778Z,98037.16
2023-03-10T14:17:31.289Z,98032.81
2023-03-10T14:20:00.081Z,98032.88
2023-03-10T14:22:37.777Z,98037.78
2023-03-10T14:25:15.555Z,98041.06
2023-03-10T14:27:47.481Z,98035.97
2023-03-10T14:30:29.965Z,98036.69
2023-03-10T14:33:00.783Z,98044.22
2023-03-10T14:35:30.983Z,98037.63
2023-03-10T14:38:00.082Z,98043.81
2023-03-10T14:40:30.425Z,98029.38
2023-03-10T14:43:03.407Z,98028.84
2023-03-10T14:45:35.548Z,98027.84
2023-03-10T14:48:14.588Z,98034.22
2023-03-10T14:50:43.511Z,98019.66
2023-03-10T14:53:16.441Z,98027.94
2023-03-10T14:55:49.411Z,98029.66
2023-03-10T14:58:23.129Z,98021.72
2023-03-10T15:00:53.395Z,98023.84
2023-03-10T15:03:22.742Z,98029.28
2023-03-10T15:05:51.559Z,98026.84
2023-03-10T15:08:20.713Z,98024.00
2023-03-10T15:10:53.063Z,98016.44
2023-03-10T15:13:25.428Z,98025.56
2023-03-10T15:15:54.370Z,98018.97
2023-03-10T15:18:27.159Z,98018.25
2023-03-10T15:20:59.125Z,98022.53
2023-03-10T15:23:29.432Z,98028.00
2023-03-10T15:26:02.945Z,98021.78
2023-03-10T15:28:32.242Z,98025.28
2023-03-10T15:31:01.140Z,98019.44
2023-03-10T15:33:30.365Z,98015.53
2023-03-10T15:35:59.277Z,98020.84
2023-03-10T15:38:28.524Z,98011.50
2023-03-10T15:40:57.938Z,98020.56
2023-03-10T15:43:28.537Z,98009.53
2023-03-10T15:45:57.491Z,98016.16
2023-03-10T15:48:26.677Z,98016.03
2023-03-10T15:50:55.602Z,98021.66
2023-03-10T15:53:24.841Z,98022.34
2023-03-10T15:55:54.438Z,98018.41
2023-03-10T15:58:23.914Z,98023.38
2023-03-10T16:00:54.188Z,98021.56
2023-03-10T16:03:23.433Z,98017.97
2023-03-10T16:05:52.274Z,98023.25
2023-03-10T16:08:21.386Z,98016.34
2023-03-10T16:10:54.695Z,98015.25
2023-03-10T16:13:25.095Z,98018.41
2023-03-10T16:15:55.363Z,98016.13
2023-03-10T16:18:24.811Z,98015.66
2023-03-10T16:20:58.601Z,98020.63
2023-03-10T16:23:29.425Z,98023.94
2023-03-10T16:26:13.561Z,98025.28
2023-03-10T16:28:46.023Z,98029.38
2023-03-10T16:31:19.767Z,98028.25
2023-03-10T16:33:51.771Z,98031.25
2023-03-10T16:36:23.929Z,98029.31
2023-03-10T16:38:54.551Z,98028.31
2023-03-10T16:41:24.716Z,98032.28
2023-03-10T16:43:54.694Z,98026.69
2023-03-10T16:46:30.149Z,98025.56
2023-03-10T16:49:02.531Z,98034.13
2023-03-10T16:51:35.332Z,98037.75
2023-03-10T16:54:08.042Z,98023.72
2023-03-10T16:56:39.583Z,98035.59
2023-03-10T16:59:09.715Z,98027.19
2023-03-10T17:01:40.903Z,98031.31
2023-03-10T17:04:09.991Z,98029.03
2023-03-10T17:06:39.251Z,98029.34
2023-03-10T17:09:11.237Z,98025.41
2023-03-10T17:11:42.791Z,98018.97
2023-03-10T17:14:15.646Z,98021.78
2023-03-10T17:16:47.032Z,98024.91
2023-03-10T17:19:18.579Z,98021.09
2023-03-10T17:21:52.340Z,98015.50
2023-03-10T17:24:23.465Z,98011.09
2023-03-10T17:26:52.499Z,98018.47
2023-03-10T17:29:21.951Z,98021.72
2023-03-10T17:31:52.355Z,98022.03
2023-03-10T17:34:21.769Z,98008.91
2023-03-10T17:36:52.067Z,98015.13
2023-03-10T17:39:23.982Z,98012.16
2023-03-10T17:41:54.445Z,98011.97
2023-03-10T17:44:23.530Z,98016.06
2023-03-10T17:46:56.019Z,98021.94
2023-03-10T17:49:25.350Z,98013.06
2023-03-10T17:51:54.147Z,98014.03
2023-03-10T17:54:23.791Z,98006.91
2023-03-10T17:56:53.091Z,98017.56
2023-03-10T17:59:22.172Z,98004.19
2023-03-10T18:01:51.000Z,97998.75
2023-03-10T18:04:21.496Z,97997.06
2023-03-10T18:06:50.352Z,97998.19
2023-03-10T18:09:19.474Z,98005.06
2023-03-10T18:11:48.486Z,97998.09
2023-03-10T18:14:17.615Z,98001.66
2023-03-10T18:16:46.544Z,97997.66
2023-03-10T18:19:18.986Z,97994.84
2023-03-10T18:21:49.868Z,98000.41
2023-03-10T18:24:19.022Z,97994.97
2023-03-10T18:26:47.972Z,97995.34
2023-03-10T18:29:17.592Z,97997.59
2023-03-10T18:31:46.762Z,97995.88
2023-03-10T18:34:15.924Z,97992.09
2023-03-10T18:36:44.778Z,97986.66
2023-03-10T18:39:15.269Z,97979.72
2023-03-10T18:41:44.045Z,97976.34
2023-03-10T18:44:13.231Z,97964.00
2023-03-10T18:46:42.100Z,97965.56
2023-03-10T18:49:11.631Z,97956.91
2023-03-10T18:51:40.399Z,97952.25
2023-03-10T18:54:09.487Z,97943.19
2023-03-10T18:56:39.630Z,97946.56
2023-03-10T18:59:08.736Z,97950.16
2023-03-10T19:01:37.668Z,97938.16
2023-03-10T19:04:06.914Z,97947.44
2023-03-10T19:06:36.088Z,97942.34
2023-03-10T19:09:08.525Z,97942.72
2023-03-10T19:11:39.905Z,97939.25
2023-03-10T19:14:10.145Z,97929.78
2023-03-10T19:16:40.604Z,97936.22
2023-03-10T19:19:10.053Z,97931.44
2023-03-10T19:21:40.181Z,97925.63
2023-03-10T19:24:09.648Z,97930.91
2023-03-10T19:26:39.829Z,97925.75
2023-03-10T19:29:08.927Z,97921.03
2023-03-10T19:31:37.713Z,97921.56
2023-03-10T19:34:07.149Z,97923.72
2023-03-10T19:36:36.079Z,97920.44
2023-03-10T19:39:06.031Z,97918.56
2023-03-10T19:41:34.816Z,97918.19
2023-03-10T19:44:05.459Z,97918.53
2023-03-10T19:46:34.696Z,97923.06
2023-03-10T19:49:05.323Z,97926.66
2023-03-10T19:51:34.135Z,97920.06
2023-03-10T19:54:04.290Z,97914.44
2023-03-10T19:56:33.455Z,97917.81
2023-03-10T19:59:04.561Z,97913.47
2023-03-10T20:01:34.667Z,97911.69
2023-03-10T20:04:04.914Z,97912.59
2023-03-10T20:06:33.761Z,97904.97
2023-03-10T20:09:03.911Z,97900.31
2023-03-10T20:11:32.761Z,97890.28
2023-03-10T20:14:01.833Z,97888.13
2023-03-10T20:16:32.838Z,97880.94
2023-03-10T20:19:02.114Z,97890.50
2023-03-10T20:21:31.044Z,97897.47
2023-03-10T20:24:00.133Z,97896.28
2023-03-10T20:26:28.937Z,97889.91
2023-03-10T20:28:59.107Z,97893.38
2023-03-10T20:31:33.874Z,97885.66
2023-03-10T20:34:07.005Z,97879.97
2023-03-10T20:36:36.473Z,97891.13
2023-03-10T20:39:06.521Z,97881.44
2023-03-10T20:41:35.465Z,97876.50
2023-03-10T20:44:07.311Z,97867.31
2023-03-10T20:46:36.427Z,97861.06
2023-03-10T20:49:06.909Z,97852.81
2023-03-10T20:51:35.831Z,97847.88
2023-03-10T20:54:05.684Z,97846.75
2023-03-10T20:56:34.616Z,97848.69
2023-03-10T20:59:03.818Z,97845.94
2023-03-10T21:01:32.775Z,97842.28
2023-03-10T21:04:02.086Z,97844.00
2023-03-10T21:06:32.407Z,97842.19
2023-03-10T21:09:05.869Z,97835.00
2023-03-10T21:11:35.789Z,97828.38
2023-03-10T21:14:06.274Z,97824.75
2023-03-10T21:16:41.603Z,97817.28
2023-03-10T21:19:11.585Z,97813.75
2023-03-10T21:21:41.806Z,97817.56
2023-03-10T21:24:11.287Z,97812.97
2023-03-10T21:26:40.126Z,97801.53
2023-03-10T21:29:09.320Z,97804.66
2023-03-10T21:31:38.278Z,97810.22
2023-03-10T21:34:07.446Z,97806.00
2023-03-10T21:36:36.328Z,97796.03
2023-03-10T21:39:09.018Z,97787.22
2023-03-10T21:41:38.290Z,97789.69
2023-03-10T21:44:07.615Z,97782.47
2023-03-10T21:46:36.815Z,97775.28
2023-03-10T21:49:06.086Z,97781.19
2023-03-10T21:51:35.895Z,97777.44
2023-03-10T21:54:08.038Z,97772.72
2023-03-10T21:56:36.966Z,97761.25
2023-03-10T21:59:07.386Z,97768.63
2023-03-10T22:01:36.233Z,97763.38
2023-03-10T22:04:05.830Z,97757.00
2023-03-10T22:06:34.682Z,97756.47
2023-03-10T22:09:03.792Z,97751.84
2023-03-10T22:11:34.424Z,97739.75
2023-03-10T22:14:03.709Z,97735.13
2023-03-10T22:16:32.605Z,97724.13
2023-03-10T22:19:01.682Z,97724.13
2023-03-10T22:21:30.807Z,97722.47
2023-03-10T22:24:00.911Z,97726.75
2023-03-10T22:26:29.706Z,97725.44
2023-03-10T22:29:00.421Z,97724.78
2023-03-10T22:31:29.292Z,97722.63
2023-03-10T22:33:58.349Z,97713.81
2023-03-10T22:36:27.331Z,97718.38
2023-03-10T22:38:56.424Z,97711.66
2023-03-10T22:41:25.797Z,97698.91
2023-03-10T22:43:56.079Z,97705.13
2023-03-10T22:46:26.444Z,97705.66
2023-03-10T22:48:55.558Z,97706.75
2023-03-10T22:51:24.463Z,97706.47
2023-03-10T22:53:53.661Z,97704.84
2023-03-10T22:56:22.566Z,97708.09
2023-03-10T22:58:51.631Z,97702.03
2023-03-10T23:01:20.585Z,97703.69
2023-03-10T23:03:51.042Z,97705.66
2023-03-10T23:06:20.392Z,97704.84
2023-03-10T23:08:49.541Z,97704.69
2023-03-10T23:11:18.376Z,97710.44
2023-03-10T23:13:47.617Z,97708.66
2023-03-10T23:16:18.147Z,97714.88
2023-03-10T23:18:48.230Z,97712.41
2023-03-10T23:21:18.420Z,97707.00
2023-03-10T23:23:48.822Z,97700.09
2023-03-10T23:26:17.713Z,97703.41
2023-03-10T23:28:47.453Z,97693.59
2023-03-10T23:31:17.177Z,97697.19
2023-03-10T23:33:48.409Z,97694.41
2023-03-10T23:36:19.110Z,97691.28
2023-03-10T23:38:48.339Z,97695.41
2023-03-10T23:41:18.456Z,97688.34
2023-03-10T23:43:47.791Z,97695.41
2023-03-10T23:46:16.644Z,97688.50
2023-03-10T23:48:45.773Z,97697.53
2023-03-10T23:51:15.801Z,97696.41
2023-03-10T23:53:46.966Z,97701.81
2023-03-10T23:56:16.085Z,97690.00
2023-03-10T23:58:45.183Z,97690.97
